• Join FlightAware (Why Join?)
  • Login
  • US Flag 
01:31AM EDT


 

Airport Tracker/Info


-or-


 

Live Flight TrackerFlight Track Log ✈ SWA3321 ✈ 21-Apr-2013 ✈ KMCO - KMHT

Flight Track Log - Related Links

Times and Time Zones

All times are in EDT time to prevent confusion due to time zone crossing. See the SWA3321 flight status page for this flight to view local times or setup timezone preferences in your user account.

Time Position Orientation Groundspeed Altitude Reporting Facility
EDT Latitude Longitude Course Direction KTS MPH feet Rate Location/Type
11:34AM 28.4333 -81.3000 348° North 166 191 800  Level Orlando TRACON
11:35AM 28.5000 -81.3167 348° North 228 262 3,600 2,460 Climbing Orlando TRACON
11:36AM 28.5667 -81.3167 360° North 262 302 6,300 2,760 Climbing Orlando TRACON
11:38AM 28.7333 -81.3489 350° North 287 330 12,100 2,640 Climbing Jacksonville Center
11:39AM 28.8294 -81.3592 355° North 319 367 14,800 2,400 Climbing Jacksonville Center
11:40AM 28.9381 -81.3717 354° North 354 407 16,900 2,100 Climbing Jacksonville Center
11:41AM 29.0467 -81.3844 354° North 382 440 19,100 2,340 Climbing Jacksonville Center
11:42AM 29.1597 -81.3969 354° North 396 456 21,600 2,220 Climbing Jacksonville Center
11:43AM 29.2767 -81.4094 355° North 409 471 23,600 2,100 Climbing Jacksonville Center
11:44AM 29.4106 -81.4242 355° North 427 491 25,800 1,860 Climbing Jacksonville Center
11:45AM 29.5358 -81.4342 356° North 442 509 27,400 1,500 Climbing Jacksonville Center
11:46AM 29.6611 -81.4442 356° North 449 517 28,800 780 Climbing Jacksonville Center
11:47AM 29.7908 -81.4589 354° North 460 529 29,000 3,060 Climbing Jacksonville Center
11:48AM 29.9267 -81.4667 357° North 470 541 35,000 3,000 Climbing Jacksonville Center
11:49AM 30.0561 -81.4839 353° North 470 541 35,000 -3,000 Level Jacksonville Center
11:50AM 30.1858 -81.4964 355° North 470 541 29,000 -3,000 Descending Jacksonville Center
11:51AM 30.3194 -81.5064 356° North 470 541 29,000 600 Level Jacksonville Center
11:52AM 30.4531 -81.5022 North 475 547 30,300 960 Climbing Jacksonville Center
11:53AM 30.5844 -81.4931 North 475 547 31,000 300 Climbing Jacksonville Center
11:54AM 30.7200 -81.4814 North 480 552 31,000  Level Jacksonville Center
11:55AM 30.8517 -81.4697 North 475 547 31,000  Level Jacksonville Center
11:56AM 30.9850 -81.4606 North 475 547 31,000  Level Jacksonville Center
11:57AM 31.1019 -81.4489 North 475 547 31,000  Level Jacksonville Center
11:58AM 31.2500 -81.4394 North 475 547 31,000  Level Jacksonville Center
11:59AM 31.3811 -81.4008 14° North 483 556 31,000  Level Jacksonville Center
12:00PM 31.5017 -81.3697 12° North 488 562 31,000  Level Jacksonville Center
12:01PM 31.6475 -81.3331 12° North 481 554 31,000  Level Jacksonville Center
12:02PM 31.7786 -81.2967 13° North 486 559 31,000  Level Jacksonville Center
12:03PM 31.9014 -81.2653 12° North 486 559 31,000  Level Jacksonville Center
12:04PM 32.0367 -81.2286 13° North 486 559 31,000  Level Jacksonville Center
12:05PM 32.1675 -81.1844 16° North 486 559 31,000  Level Jacksonville Center
12:06PM 32.2875 -81.0986 31° Northeast 492 566 31,000  Level Jacksonville Center
12:07PM 32.4072 -81.0125 31° Northeast 501 577 31,000  Level Jacksonville Center
12:08PM 32.5269 -80.9239 32° Northeast 506 582 31,000  Level Jacksonville Center
12:09PM 32.6489 -80.8375 31° Northeast 506 582 31,000  Level Jacksonville Center
12:10PM 32.7706 -80.7506 31° Northeast 506 582 31,000  Level Jacksonville Center
12:11PM 32.8942 -80.6611 31° Northeast 506 582 31,000 840 Level Jacksonville Center
12:12PM 33.0136 -80.5714 32° Northeast 506 582 32,700 960 Climbing Jacksonville Center
12:13PM 33.1372 -80.4839 31° Northeast 506 582 33,000 120 Climbing Jacksonville Center
12:14PM 33.2586 -80.3961 31° Northeast 506 582 33,000  Level Jacksonville Center
12:15PM 33.3883 -80.2981 32° Northeast 506 582 33,000  Level Jacksonville Center
12:16PM 33.5114 -80.2047 32° Northeast 506 582 33,000  Level Jacksonville Center
12:17PM 33.6328 -80.1161 31° Northeast 506 582 33,000  Level Jacksonville Center
12:18PM 33.7558 -80.0225 32° Northeast 506 582 33,000  Level Jacksonville Center
12:19PM 33.8725 -79.9311 33° Northeast 506 582 33,000  Level Jacksonville Center
12:20PM 33.9956 -79.8392 32° Northeast 506 582 33,000  Level Jacksonville Center
12:21PM 34.1164 -79.7497 31° Northeast 506 582 33,000  Level Jacksonville Center
12:22PM 34.2394 -79.6575 32° Northeast 506 582 33,000  Level Jacksonville Center
12:23PM 34.3525 -79.5953 24° Northeast 496 571 33,000 180 Level Jacksonville Center
12:25PM 34.5886 -79.4744 23° Northeast 481 554 33,600 720 Climbing Washington Center
12:26PM 34.7181 -79.4047 24° Northeast 495 570 35,000 1,080 Climbing Washington Center
12:27PM 34.8475 -79.3375 23° Northeast 495 570 35,800 900 Climbing Washington Center
12:28PM 34.9792 -79.2675 24° Northeast 505 581 36,800 600 Climbing Washington Center
12:29PM 35.1106 -79.1972 24° Northeast 505 581 37,000 60 Climbing Washington Center
12:30PM 35.2422 -79.1269 24° Northeast 505 581 37,000  Level Washington Center
12:31PM 35.3714 -79.0589 23° Northeast 512 589 37,000  Level Washington Center
12:32PM 35.5028 -78.9881 24° Northeast 506 582 37,000  Level Washington Center
12:33PM 35.6361 -78.9194 23° Northeast 506 582 37,000  Level Washington Center
12:34PM 35.7656 -78.8456 25° Northeast 506 582 37,000  Level Washington Center
12:35PM 35.8800 -78.7811 25° Northeast 506 582 37,000  Level Washington Center
12:36PM 36.0017 -78.6781 34° Northeast 506 582 37,000  Level Washington Center
12:37PM 36.1169 -78.5722 37° Northeast 506 582 37,000  Level Washington Center
12:38PM 36.2342 -78.4683 36° Northeast 511 588 37,000  Level Washington Center
12:39PM 36.3514 -78.3644 36° Northeast 511 588 37,000  Level Washington Center
12:40PM 36.4686 -78.2600 36° Northeast 511 588 37,000  Level Washington Center
12:41PM 36.5878 -78.1556 35° Northeast 511 588 37,000  Level Washington Center
12:42PM 36.7111 -78.0378 37° Northeast 506 582 37,000  Level Washington Center
12:43PM 36.8258 -77.9325 36° Northeast 511 588 37,000  Level Washington Center
12:44PM 36.9406 -77.8242 37° Northeast 511 588 37,000  Level Washington Center
12:45PM 37.0553 -77.7208 36° Northeast 511 588 37,000  Level Washington Center
12:46PM 37.1697 -77.6119 37° Northeast 511 588 37,000  Level Washington Center
12:47PM 37.2819 -77.5078 36° Northeast 511 588 37,000  Level Washington Center
12:48PM 37.3964 -77.3983 37° Northeast 511 588 37,000  Level Washington Center
12:49PM 37.5106 -77.2908 37° Northeast 511 588 37,000  Level Washington Center
12:50PM 37.6267 -77.1808 37° Northeast 511 588 37,000  Level Washington Center
12:51PM 37.7386 -77.0728 37° Northeast 511 588 37,000  Level Washington Center
12:52PM 37.8525 -76.9619 38° Northeast 511 588 37,000  Level Washington Center
12:53PM 37.9664 -76.8508 38° Northeast 511 588 37,000  Level Washington Center
12:54PM 38.0822 -76.7419 36° Northeast 511 588 37,000  Level Washington Center
12:55PM 38.1958 -76.6275 38° Northeast 511 588 37,000  Level Washington Center
12:56PM 38.2883 -76.5386 37° Northeast 511 588 37,000  Level Washington Center
12:57PM 38.4122 -76.4183 37° Northeast 511 588 37,000  Level Washington Center
12:58PM 38.5256 -76.3056 38° Northeast 511 588 37,000  Level Washington Center
12:59PM 38.6386 -76.1950 37° Northeast 511 588 37,000  Level Washington Center
01:00PM 38.7581 -76.0814 37° Northeast 517 595 37,000  Level Washington Center
01:01PM 38.8669 -75.9703 38° Northeast 517 595 37,000  Level Washington Center
01:02PM 38.9839 -75.8586 37° Northeast 512 589 37,000  Level Washington Center
01:03PM 39.0944 -75.7467 38° Northeast 512 589 37,000  Level Washington Center
01:04PM 39.2092 -75.6292 38° Northeast 512 589 37,000  Level Washington Center
01:05PM 39.3197 -75.5164 38° Northeast 507 583 37,000  Level Washington Center
01:07PM 39.5650 -75.2681 38° Northeast 538 619 37,000  Level New York Center
01:08PM 39.6778 -75.1539 38° Northeast 520 598 37,000  Level New York Center
01:09PM 39.7992 -75.0236 39° Northeast 513 590 37,000  Level New York Center
01:10PM 39.9117 -74.9089 38° Northeast 509 586 37,000  Level New York Center
01:11PM 40.0081 -74.7764 46° Northeast 504 580 37,000  Level New York Center
01:12PM 40.0956 -74.6483 48° Northeast 515 593 37,000  Level New York Center
01:13PM 40.2203 -74.5331 35° Northeast 493 567 37,000  Level New York Center
01:14PM 40.3592 -74.4944 12° North 490 564 37,000  Level New York Center
01:15PM 40.4914 -74.4578 12° North 485 558 37,000  Level New York Center
01:16PM 40.6239 -74.4211 12° North 480 552 37,000  Level New York Center
01:17PM 40.7586 -74.3819 12° North 480 552 37,000  Level New York Center
01:19PM 41.0553 -74.3008 12° North 485 558 37,000  Level Boston Center
01:20PM 41.1853 -74.2633 12° North 479 551 37,000  Level Boston Center
01:21PM 41.3003 -74.2278 13° North 474 545 37,000  Level Boston Center
01:23PM 41.4322 -74.1900 12° North 474 545 37,000  Level Boston Center
01:24PM 41.5808 -74.1497 11° North 474 545 37,000 -60 Level Boston Center
01:25PM 41.7400 -74.1011 13° North 479 551 36,900 -1,320 Descending Boston Center
01:26PM 41.8678 -74.0681 11° North 479 551 34,400 -2,160 Descending Boston Center
01:27PM 41.9994 -74.0297 12° North 473 544 32,600 -1,440 Descending Boston Center
01:28PM 42.1333 -73.9911 12° North 473 544 31,600 -1,020 Descending Boston Center
01:29PM 42.2633 -73.9494 13° North 473 544 30,600 -1,080 Descending Boston Center
01:30PM 42.3889 -73.8961 17° North 470 541 29,500 -1,560 Descending Boston Center
01:31PM 42.4514 -73.7317 63° Northeast 439 505 27,500 -1,500 Descending Boston Center
01:32PM 42.4950 -73.5581 71° East 450 518 26,500 -1,140 Descending Boston Center
01:33PM 42.5383 -73.3842 71° East 459 528 25,300 -1,680 Descending Boston Center
01:34PM 42.5792 -73.2125 72° East 490 564 23,200 -1,740 Descending Boston Center
01:35PM 42.6133 -73.0747 71° East 447 514 21,500 -1,860 Descending Boston Center
01:36PM 42.6517 -72.8917 74° East 445 512 19,200 -1,680 Descending Boston Center
01:37PM 42.6917 -72.7367 71° East 421 484 18,200 -900 Descending Boston Center
01:38PM 42.7275 -72.5900 72° East 406 467 17,500 -1,500 Descending Boston Center
01:39PM 42.7589 -72.4486 73° East 400 460 15,300 -1,920 Descending Boston Center
01:40PM 42.7900 -72.3100 73° East 389 448 13,300 -1,920 Descending Boston Center
01:41PM 42.8064 -72.1486 82° East 364 419 11,100 -1,740 Descending Boston Center
01:42PM 42.8144 -72.0100 85° East 341 392 9,900 -1,080 Descending Boston Center
01:43PM 42.8033 -71.9081 98° East 308 354 9,000 -1,020 Descending Boston Center
01:44PM 42.7925 -71.7922 97° East 292 336 7,900 -1,020 Descending Boston Center
01:45PM 42.7858 -71.7103 96° East 282 325 7,000 -1,080 Descending Boston Center
01:46PM 42.7744 -71.5944 98° East 263 303 5,800 -1,080 Descending Boston Center
01:47PM 42.7675 -71.5125 97° East 252 290 4,900 -1,020 Descending Boston Center
01:48PM 42.7878 -71.4244 73° East 227 261 3,800 -1,080 Descending Boston Center
01:49PM 42.8164 -71.3872 44° Northeast 180 207 2,800 -1,020 Descending Boston Center
01:50PM 42.8603 -71.3922 355° North 137 158 1,800 -960 Descending Boston Center
01:51PM 42.8939 -71.4086 340° North 137 158 900 8,580 Descending Boston Center
01:52PM 42.9336 -71.4306 338° Northwest 137 158 19,000 9,000 Climbing Boston Center
01:53PM 42.9692 -71.4525 336° Northwest 137 158 19,000  Level Boston Center
01:54PM 43.0069 -71.4719 339° North 137 158 19,000  Level Boston Center
01:55PM 43.0361 -71.4886 337° Northwest 137 158 19,000  Level Boston Center
01:57PM 42.9328 -71.4358 166° South  Level Estimated
02:04PM 42.9328 -71.4358 166° South  Level Estimated
02:05PM 42.9328 -71.4358 166° South  Level Estimated
02:06PM 42.9328 -71.4358 166° South  Level Estimated
02:07PM 42.9328 -71.4358 166° South  Level Estimated
02:08PM 42.9328 -71.4358 166° South  Level Estimated